Time;durP1;ratioP1;P1;durP2;ratioP2;P2;SDS_P1;SDS_P2;PMS_P1;PMS_P2;Temp;Humidity;BMP_temperature;BMP_pressure;BME280_temperature;BME280_humidity;BME280_pressure;Samples;Min_cycle;Max_cycle;Signal;HPM_P1;HPM_P2
2023/08/25 00:00:51;;;;;;;13.90;9.50;;;;;;;26.16;72.74;100436.20;107936;1290;21999;-58
2023/08/25 00:03:17;;;;;;;10.90;9.10;;;;;;;26.16;72.79;100433.48;107847;1288;22199;-68
2023/08/25 00:05:42;;;;;;;10.50;9.10;;;;;;;26.15;72.77;100431.23;107810;1291;22083;-59
2023/08/25 00:08:08;;;;;;;15.90;9.50;;;;;;;26.13;72.20;100431.38;107902;1291;22098;-58
2023/08/25 00:10:34;;;;;;;12.70;9.20;;;;;;;26.10;72.04;100432.85;107773;1286;22159;-68
2023/08/25 00:13:00;;;;;;;10.70;9.10;;;;;;;26.08;72.13;100434.63;107801;1291;21992;-58
2023/08/25 00:15:26;;;;;;;10.40;9.20;;;;;;;26.05;72.26;100438.75;107783;1291;21996;-68
2023/08/25 00:17:53;;;;;;;11.40;9.00;;;;;;;26.03;72.31;100441.84;107826;1291;22000;-65
2023/08/25 00:20:19;;;;;;;11.10;9.10;;;;;;;26.02;72.09;100443.19;107863;1291;21989;-68
2023/08/25 00:22:44;;;;;;;14.70;8.90;;;;;;;26.01;72.18;100445.80;107836;1291;22003;-59
2023/08/25 00:25:10;;;;;;;10.20;8.90;;;;;;;25.99;72.38;100445.02;107866;1291;23102;-63
2023/08/25 00:27:36;;;;;;;11.80;8.70;;;;;;;25.96;72.19;100444.10;107800;1290;22001;-59
2023/08/25 00:30:03;;;;;;;11.30;7.80;;;;;;;25.92;71.87;100443.88;107826;1281;21993;-67
2023/08/25 00:32:28;;;;;;;10.20;8.10;;;;;;;25.87;71.70;100440.31;107810;1287;23057;-67
2023/08/25 00:34:54;;;;;;;10.50;8.20;;;;;;;25.84;71.72;100439.44;107819;1292;22008;-58
2023/08/25 00:37:20;;;;;;;11.10;8.60;;;;;;;25.84;71.73;100436.42;107810;1292;22000;-68
2023/08/25 00:39:45;;;;;;;13.90;9.20;;;;;;;25.83;71.75;100435.07;107810;1292;22036;-58
2023/08/25 00:42:11;;;;;;;12.20;8.40;;;;;;;25.80;71.59;100438.00;107700;1292;22109;-58
2023/08/25 00:44:37;;;;;;;16.30;9.00;;;;;;;25.73;71.17;100438.66;107825;1292;21992;-67
2023/08/25 00:47:03;;;;;;;13.20;8.80;;;;;;;25.67;71.05;100434.27;107944;1292;21989;-70
2023/08/25 00:49:29;;;;;;;11.20;9.40;;;;;;;25.63;71.41;100432.02;107802;1292;21998;-59
2023/08/25 00:51:55;;;;;;;11.50;9.00;;;;;;;25.60;71.44;100435.17;107797;1291;23602;-58
2023/08/25 00:54:21;;;;;;;10.20;9.10;;;;;;;25.57;71.65;100436.84;107796;1292;21992;-67
2023/08/25 00:56:48;;;;;;;10.40;8.40;;;;;;;25.55;71.76;100435.36;107824;1292;21990;-58
2023/08/25 00:59:13;;;;;;;12.60;9.40;;;;;;;25.54;71.84;100433.45;107893;1292;22084;-59
2023/08/25 01:01:40;;;;;;;11.40;9.60;;;;;;;25.52;71.94;100432.13;107813;1291;22024;-59
2023/08/25 01:04:06;;;;;;;11.20;9.50;;;;;;;25.51;72.21;100434.23;107819;1292;21994;-68
2023/08/25 01:06:31;;;;;;;12.60;9.30;;;;;;;25.50;72.34;100432.30;107922;1292;21993;-67
2023/08/25 01:08:58;;;;;;;13.00;9.30;;;;;;;25.50;72.36;100430.30;107834;1292;22000;-67
2023/08/25 01:12:04;;;;;;;12.60;9.30;;;;;;;25.51;72.39;100426.11;107796;1290;21994;-67
2023/08/25 01:14:46;;;;;;;13.60;9.10;;;;;;;25.51;72.63;100421.98;107848;1290;21993;-59
2023/08/25 01:17:24;;;;;;;14.00;10.90;;;;;;;25.50;72.59;100417.94;107814;1287;22000;-58
2023/08/25 01:20:08;;;;;;;15.30;10.90;;;;;;;25.50;72.50;100413.80;107844;1287;22009;-68
2023/08/25 01:22:45;;;;;;;14.80;10.60;;;;;;;25.51;72.73;100409.42;107805;1286;22001;-67
2023/08/25 01:25:27;;;;;;;13.00;10.60;;;;;;;25.51;72.89;100408.36;107816;1291;21990;-67
2023/08/25 01:27:58;;;;;;;12.70;11.40;;;;;;;25.48;72.74;100402.41;107803;1280;22083;-67
2023/08/25 01:30:25;;;;;;;11.30;10.10;;;;;;;25.46;72.60;100401.73;107838;1280;21992;-67
2023/08/25 01:32:51;;;;;;;13.60;10.70;;;;;;;25.45;72.77;100402.55;107874;1281;22000;-67
2023/08/25 01:35:19;;;;;;;16.80;11.60;;;;;;;25.45;72.78;100401.64;107889;1291;22014;-67
2023/08/25 01:37:50;;;;;;;13.50;11.00;;;;;;;25.46;72.96;100407.66;107920;1287;22462;-67
2023/08/25 01:40:20;;;;;;;13.80;11.60;;;;;;;25.46;73.02;100408.70;107844;1281;21972;-58
2023/08/25 01:42:45;;;;;;;13.20;11.80;;;;;;;25.46;73.00;100409.77;107738;1287;21996;-59
2023/08/25 01:45:11;;;;;;;13.20;11.60;;;;;;;25.47;72.93;100407.03;107848;1281;22007;-59
2023/08/25 01:47:37;;;;;;;17.20;12.40;;;;;;;25.48;73.02;100411.64;107771;1290;22019;-68
2023/08/25 01:50:03;;;;;;;15.40;13.10;;;;;;;25.48;73.32;100413.80;107857;1290;21999;-67
2023/08/25 01:52:28;;;;;;;16.60;12.90;;;;;;;25.46;73.23;100410.50;107845;1289;22032;-58
2023/08/25 01:54:54;;;;;;;15.30;11.80;;;;;;;25.44;73.22;100410.08;107917;1283;22004;-67
2023/08/25 01:57:20;;;;;;;14.60;12.70;;;;;;;25.45;73.60;100409.50;107835;1280;21992;-67
2023/08/25 01:59:46;;;;;;;13.90;12.30;;;;;;;25.47;73.61;100412.08;107868;1281;21986;-59
2023/08/25 02:02:11;;;;;;;13.80;12.20;;;;;;;25.47;73.60;100411.34;107799;1290;21997;-67
2023/08/25 02:04:37;;;;;;;17.70;12.10;;;;;;;25.47;73.51;100417.24;107807;1284;22018;-67
2023/08/25 02:07:03;;;;;;;15.10;12.50;;;;;;;25.46;73.51;100421.09;107900;1280;22046;-67
2023/08/25 02:09:29;;;;;;;14.40;11.80;;;;;;;25.46;73.41;100419.32;107815;1281;21993;-67
2023/08/25 02:11:54;;;;;;;13.60;11.60;;;;;;;25.46;73.29;100422.04;107858;1290;21992;-67
2023/08/25 02:14:20;;;;;;;12.60;11.30;;;;;;;25.44;73.26;100423.91;107799;1290;22011;-67
2023/08/25 02:16:45;;;;;;;14.70;11.50;;;;;;;25.44;73.29;100425.05;107864;1283;23727;-59
2023/08/25 02:19:11;;;;;;;14.30;11.90;;;;;;;25.43;73.23;100426.00;107838;1290;22047;-67
2023/08/25 02:21:36;;;;;;;14.40;11.40;;;;;;;25.42;73.37;100425.73;107791;1289;22052;-67
2023/08/25 02:24:02;;;;;;;13.70;12.00;;;;;;;25.40;73.55;100425.67;107836;1284;23071;-66
2023/08/25 02:26:27;;;;;;;15.50;12.20;;;;;;;25.37;73.50;100428.17;107787;1284;21993;-65
2023/08/25 02:28:53;;;;;;;13.30;11.70;;;;;;;25.36;73.35;100426.84;107769;1291;22011;-59
2023/08/25 02:31:19;;;;;;;14.60;11.70;;;;;;;25.36;73.27;100426.52;107772;1287;22000;-67
2023/08/25 02:33:44;;;;;;;14.20;11.40;;;;;;;25.35;73.34;100427.63;107811;1291;22013;-66
2023/08/25 02:36:10;;;;;;;17.50;11.70;;;;;;;25.34;73.38;100433.95;107805;1290;21995;-67
2023/08/25 02:38:36;;;;;;;19.50;11.50;;;;;;;25.34;73.16;100435.09;107760;1284;22046;-59
2023/08/25 02:41:01;;;;;;;13.80;11.00;;;;;;;25.32;73.32;100428.17;107739;1290;21998;-67
2023/08/25 02:43:27;;;;;;;15.30;11.10;;;;;;;25.30;73.50;100423.13;107773;1286;22000;-67
2023/08/25 02:45:52;;;;;;;14.00;11.30;;;;;;;25.28;73.34;100422.91;107760;1287;22002;-67
2023/08/25 02:48:18;;;;;;;14.00;12.10;;;;;;;25.26;73.28;100417.86;107894;1290;21999;-66
2023/08/25 02:50:44;;;;;;;13.50;12.10;;;;;;;25.24;73.41;100416.20;107915;1290;22000;-67
2023/08/25 02:53:09;;;;;;;14.50;10.80;;;;;;;25.22;73.60;100416.16;107931;1290;21984;-59
2023/08/25 02:55:35;;;;;;;14.50;10.30;;;;;;;25.20;73.07;100414.49;107762;1290;21985;-61
2023/08/25 02:58:00;;;;;;;11.80;10.40;;;;;;;25.19;72.72;100417.32;107767;1286;23717;-59
2023/08/25 03:00:26;;;;;;;12.50;10.00;;;;;;;25.17;72.78;100416.73;107751;1290;22004;-66
2023/08/25 03:02:52;;;;;;;13.30;10.50;;;;;;;25.16;72.63;100414.52;107746;1290;21995;-59
2023/08/25 03:05:18;;;;;;;12.80;10.60;;;;;;;25.14;72.63;100411.25;107747;1290;21986;-60
2023/08/25 03:07:43;;;;;;;13.90;10.10;;;;;;;25.12;72.91;100409.23;107766;1287;21992;-67
2023/08/25 03:10:09;;;;;;;15.20;10.00;;;;;;;25.09;72.89;100410.52;107772;1289;22174;-66
2023/08/25 03:12:35;;;;;;;13.30;9.50;;;;;;;25.06;72.56;100410.33;107732;1287;22160;-59
2023/08/25 03:15:01;;;;;;;10.20;9.10;;;;;;;25.06;72.50;100410.36;107755;1290;21995;-61
2023/08/25 03:17:26;;;;;;;12.30;10.10;;;;;;;25.06;72.30;100410.17;107756;1281;22001;-59
2023/08/25 03:19:52;;;;;;;13.30;9.80;;;;;;;25.06;72.17;100411.23;107858;1290;22004;-62
2023/08/25 03:22:18;;;;;;;14.60;9.00;;;;;;;25.06;72.07;100413.59;107837;1284;21992;-68
2023/08/25 03:24:44;;;;;;;15.70;9.40;;;;;;;25.05;71.96;100413.14;107822;1290;21998;-66
2023/08/25 03:27:10;;;;;;;12.50;9.00;;;;;;;25.04;72.02;100419.11;107837;1281;21989;-66
2023/08/25 03:29:36;;;;;;;16.10;9.80;;;;;;;25.02;72.11;100425.31;107831;1290;22096;-66
2023/08/25 03:32:02;;;;;;;11.20;8.70;;;;;;;25.01;71.98;100425.96;107877;1290;21992;-66
2023/08/25 03:34:29;;;;;;;12.90;8.90;;;;;;;25.00;71.78;100419.76;107837;1284;22004;-65
2023/08/25 03:36:55;;;;;;;12.70;9.40;;;;;;;24.98;71.74;100419.69;107858;1284;21993;-66
2023/08/25 03:39:20;;;;;;;13.20;9.70;;;;;;;24.98;71.80;100420.10;107830;1277;21993;-67
2023/08/25 03:41:46;;;;;;;19.60;9.70;;;;;;;24.96;71.69;100422.35;107824;1280;22304;-59
2023/08/25 03:44:11;;;;;;;11.50;9.30;;;;;;;24.95;71.76;100425.98;107822;1284;21999;-67
2023/08/25 03:46:37;;;;;;;16.30;9.30;;;;;;;24.97;72.00;100430.05;107850;1281;22001;-60
2023/08/25 03:49:03;;;;;;;10.30;9.00;;;;;;;24.96;71.97;100433.83;107863;1289;21991;-59
2023/08/25 03:51:29;;;;;;;12.60;9.40;;;;;;;24.96;72.13;100437.43;107905;1290;21995;-67
2023/08/25 03:53:55;;;;;;;11.40;9.10;;;;;;;24.97;72.34;100437.17;107830;1290;22007;-59
2023/08/25 03:56:21;;;;;;;13.80;9.60;;;;;;;25.03;71.88;100437.86;107865;1281;21990;-59
2023/08/25 03:58:47;;;;;;;13.10;8.80;;;;;;;25.03;71.60;100440.70;107882;1281;22000;-67
2023/08/25 04:01:12;;;;;;;10.40;9.00;;;;;;;25.05;71.71;100440.02;105865;1290;2666293;-63
2023/08/25 04:03:39;;;;;;;12.20;8.90;;;;;;;25.08;71.60;100442.33;107816;1290;21993;-59
2023/08/25 04:06:04;;;;;;;17.30;9.50;;;;;;;25.11;71.72;100442.67;107808;1282;21988;-67
2023/08/25 04:08:30;;;;;;;15.50;8.50;;;;;;;25.16;71.91;100446.64;107822;1278;22455;-67
2023/08/25 04:10:56;;;;;;;11.40;8.90;;;;;;;25.20;72.26;100449.56;107793;1284;22003;-67
2023/08/25 04:13:21;;;;;;;13.30;9.50;;;;;;;25.26;72.39;100444.10;107828;1289;21998;-67
2023/08/25 04:16:12;;;;;;;11.30;8.00;;;;;;;25.32;72.55;100446.15;107789;1290;22000;-59
2023/08/25 04:18:38;;;;;;;11.40;8.30;;;;;;;25.39;72.78;100451.42;107871;1285;22032;-66
2023/08/25 04:21:03;;;;;;;18.90;8.70;;;;;;;25.46;72.67;100454.20;107832;1278;22016;-60
2023/08/25 04:23:30;;;;;;;14.90;7.70;;;;;;;25.62;72.74;100459.94;107830;1281;21998;-67
2023/08/25 04:25:56;;;;;;;12.30;8.50;;;;;;;25.85;72.93;100466.51;107842;1286;21996;-59
2023/08/25 04:28:22;;;;;;;9.50;8.00;;;;;;;26.08;72.76;100470.61;107800;1289;22000;-67
2023/08/25 04:30:51;;;;;;;11.60;8.40;;;;;;;26.26;72.48;100478.20;107798;1290;22002;-67
2023/08/25 04:33:17;;;;;;;13.10;8.10;;;;;;;26.44;72.17;100485.84;107899;1290;21984;-69
2023/08/25 04:35:42;;;;;;;9.30;7.50;;;;;;;26.57;72.43;100486.42;107766;1291;22108;-59
2023/08/25 04:38:08;;;;;;;11.40;8.20;;;;;;;26.62;72.07;100487.53;107738;1287;21996;-59
2023/08/25 04:40:33;;;;;;;12.10;8.40;;;;;;;26.64;72.13;100492.06;107733;1286;22003;-60
2023/08/25 04:42:59;;;;;;;10.40;8.10;;;;;;;26.65;72.34;100492.54;107673;1287;21999;-59
2023/08/25 04:45:24;;;;;;;14.20;8.30;;;;;;;26.65;72.51;100497.14;107645;1280;22007;-69
2023/08/25 04:47:50;;;;;;;11.30;7.80;;;;;;;26.68;72.63;100503.23;107655;1290;22039;-70
2023/08/25 04:50:15;;;;;;;15.20;9.10;;;;;;;26.72;72.96;100501.47;107622;1287;21991;-59
2023/08/25 04:52:41;;;;;;;9.80;7.90;;;;;;;26.78;73.00;100503.92;107657;1290;22191;-59
2023/08/25 04:55:07;;;;;;;11.70;8.50;;;;;;;26.83;73.16;100498.83;107685;1286;22183;-70
2023/08/25 04:57:34;;;;;;;13.30;8.00;;;;;;;26.88;73.34;100496.71;107870;1284;21990;-59
2023/08/25 05:00:03;;;;;;;13.10;8.30;;;;;;;26.91;73.48;100496.64;107810;1290;21997;-59
2023/08/25 05:02:28;;;;;;;11.80;8.70;;;;;;;26.95;73.51;100498.27;107900;1280;21992;-60
2023/08/25 05:04:54;;;;;;;13.30;9.00;;;;;;;27.03;73.78;100502.17;107815;1290;22466;-68
2023/08/25 05:07:20;;;;;;;15.30;7.60;;;;;;;27.11;73.27;100505.27;107856;1290;21997;-58
2023/08/25 05:09:45;;;;;;;13.60;7.80;;;;;;;27.28;73.08;100510.20;107854;1284;22004;-67
2023/08/25 05:12:11;;;;;;;12.20;7.70;;;;;;;27.52;73.27;100516.05;107839;1287;21999;-67
2023/08/25 05:14:37;;;;;;;11.10;7.90;;;;;;;27.75;73.37;100513.65;107804;1290;21992;-68
2023/08/25 05:17:02;;;;;;;11.80;7.40;;;;;;;27.97;73.09;100513.98;107835;1290;21987;-57
2023/08/25 05:19:28;;;;;;;10.20;7.00;;;;;;;28.18;72.83;100517.89;107870;1287;21995;-61
2023/08/25 05:21:54;;;;;;;12.80;6.90;;;;;;;28.38;73.21;100515.83;107843;1290;21985;-65
2023/08/25 05:24:21;;;;;;;9.70;6.90;;;;;;;28.57;72.41;100518.74;107904;1289;22007;-66
2023/08/25 05:26:52;;;;;;;8.80;7.00;;;;;;;28.75;72.23;100527.13;107745;1290;21945;-56
2023/08/25 05:29:19;;;;;;;9.00;6.60;;;;;;;28.92;72.49;100529.77;107702;1290;21994;-66
2023/08/25 05:31:45;;;;;;;10.10;6.20;;;;;;;29.11;72.51;100534.14;107799;1290;22050;-57
2023/08/25 05:34:10;;;;;;;11.50;6.50;;;;;;;29.30;72.99;100538.44;107739;1291;22015;-62
2023/08/25 05:36:36;;;;;;;8.50;6.20;;;;;;;29.49;72.65;100543.77;107723;1287;22461;-58
2023/08/25 05:39:02;;;;;;;9.30;5.80;;;;;;;29.69;72.93;100547.97;107830;1284;22050;-57
2023/08/25 05:41:27;;;;;;;6.90;5.60;;;;;;;29.88;72.63;100550.08;107808;1280;21995;-57
2023/08/25 05:43:53;;;;;;;9.40;5.90;;;;;;;30.07;72.31;100545.98;107758;1287;22014;-56
2023/08/25 05:46:19;;;;;;;7.60;5.60;;;;;;;30.27;71.76;100542.73;107737;1290;22454;-66
2023/08/25 05:48:44;;;;;;;8.30;5.70;;;;;;;30.46;71.28;100541.91;107779;1287;21999;-65
2023/08/25 05:51:10;;;;;;;9.00;5.80;;;;;;;30.64;70.62;100537.64;107751;1287;21991;-65
2023/08/25 05:53:35;;;;;;;10.30;6.80;;;;;;;30.82;70.32;100530.94;107826;1291;22029;-58
2023/08/25 05:56:01;;;;;;;9.60;5.60;;;;;;;30.99;70.01;100524.25;107743;1289;22029;-68
2023/08/25 05:58:26;;;;;;;12.20;5.30;;;;;;;31.16;69.51;100515.73;107686;1286;21996;-59
2023/08/25 06:00:52;;;;;;;7.80;5.40;;;;;;;31.33;69.18;100514.39;107700;1291;22016;-66
2023/08/25 06:03:18;;;;;;;10.70;5.40;;;;;;;31.51;68.69;100515.54;107706;1284;22005;-59
2023/08/25 06:05:46;;;;;;;10.50;6.50;;;;;;;31.64;68.45;100516.66;109919;1286;21926;-60
2023/08/25 06:08:12;;;;;;;11.70;5.60;;;;;;;31.65;68.99;100523.98;109545;1291;23062;-59
2023/08/25 06:10:38;;;;;;;8.60;5.80;;;;;;;31.68;68.83;100523.28;107784;1291;21997;-59
2023/08/25 06:13:03;;;;;;;8.10;5.90;;;;;;;31.77;68.47;100526.42;107758;1290;23647;-58
2023/08/25 06:15:29;;;;;;;6.70;5.00;;;;;;;31.90;68.45;100527.51;107785;1291;21997;-57
2023/08/25 06:17:54;;;;;;;10.90;6.20;;;;;;;32.13;68.75;100526.40;107776;1281;22012;-69
2023/08/25 06:20:23;;;;;;;8.40;5.60;;;;;;;32.44;69.10;100527.66;107780;1286;22002;-69
2023/08/25 06:22:49;;;;;;;7.80;5.60;;;;;;;32.77;68.75;100527.75;107777;1290;22013;-68
2023/08/25 06:25:15;;;;;;;9.10;5.70;;;;;;;33.07;67.98;100523.89;107728;1290;22008;-68
2023/08/25 06:27:40;;;;;;;6.30;5.50;;;;;;;33.34;67.11;100522.37;107769;1281;21983;-57
2023/08/25 06:30:07;;;;;;;8.90;5.80;;;;;;;33.55;66.09;100518.15;107787;1290;23502;-69
2023/08/25 06:32:33;;;;;;;7.00;5.60;;;;;;;33.75;65.45;100517.62;107770;1287;21993;-57
2023/08/25 06:34:58;;;;;;;9.60;6.20;;;;;;;33.96;63.81;100515.59;107794;1290;23064;-78
2023/08/25 06:37:24;;;;;;;8.00;6.50;;;;;;;34.05;63.63;100514.35;107840;1286;22001;-58
2023/08/25 06:39:50;;;;;;;10.20;5.70;;;;;;;34.12;63.13;100514.70;107830;1284;21998;-80
2023/08/25 06:42:16;;;;;;;7.20;6.00;;;;;;;34.19;62.33;100510.66;107748;1287;21991;-79
2023/08/25 06:44:42;;;;;;;7.10;5.80;;;;;;;34.29;62.13;100508.67;107697;1290;22000;-59
2023/08/25 06:47:07;;;;;;;8.30;5.70;;;;;;;34.39;61.61;100508.61;107815;1285;22030;-83
2023/08/25 06:49:33;;;;;;;6.90;6.20;;;;;;;34.52;61.24;100503.77;107883;1284;21987;-77
2023/08/25 06:51:59;;;;;;;7.70;6.30;;;;;;;34.66;60.85;100503.66;107820;1287;21989;-59
2023/08/25 06:54:25;;;;;;;8.70;6.00;;;;;;;34.76;60.12;100510.20;107810;1290;21989;-80
2023/08/25 06:56:51;;;;;;;10.70;6.20;;;;;;;34.82;59.85;100517.10;107801;1290;22030;-59
2023/08/25 06:59:16;;;;;;;9.00;5.70;;;;;;;34.89;59.35;100519.86;107852;1290;22050;-79
2023/08/25 07:01:42;;;;;;;8.20;6.30;;;;;;;34.94;58.72;100521.66;107817;1284;21990;-80
2023/08/25 07:04:07;;;;;;;8.00;6.00;;;;;;;34.97;58.05;100521.61;107850;1280;21996;-81
2023/08/25 07:06:33;;;;;;;7.60;5.60;;;;;;;35.01;57.82;100521.95;107827;1289;21990;-80
2023/08/25 07:08:59;;;;;;;8.80;6.70;;;;;;;35.05;57.32;100522.22;107870;1290;21997;-60
2023/08/25 07:11:26;;;;;;;7.70;6.40;;;;;;;35.08;56.85;100524.96;107835;1283;22001;-59
2023/08/25 07:13:52;;;;;;;7.60;6.30;;;;;;;35.10;56.36;100529.29;107880;1280;22085;-72
2023/08/25 07:16:17;;;;;;;11.10;6.20;;;;;;;35.10;55.48;100531.48;107872;1290;22010;-77
2023/08/25 07:18:43;;;;;;;8.50;6.40;;;;;;;35.15;55.89;100536.41;107879;1290;21992;-76
2023/08/25 07:21:10;;;;;;;12.80;7.00;;;;;;;35.25;55.67;100538.36;107896;1290;21998;-79
2023/08/25 07:23:36;;;;;;;8.10;6.20;;;;;;;35.37;55.60;100544.26;108481;1281;21993;-78
2023/08/25 07:26:02;;;;;;;9.00;6.70;;;;;;;35.50;55.35;100547.40;107795;1284;22000;-59
2023/08/25 07:28:27;;;;;;;8.20;6.20;;;;;;;35.60;54.82;100550.13;107842;1290;22001;-78
2023/08/25 07:30:53;;;;;;;8.70;6.40;;;;;;;35.65;54.04;100547.84;107813;1283;22002;-77
2023/08/25 07:33:19;;;;;;;10.00;6.40;;;;;;;35.72;54.10;100544.45;107875;1280;22005;-81
2023/08/25 07:35:44;;;;;;;10.00;6.40;;;;;;;35.82;54.05;100533.10;107846;1290;21999;-83
2023/08/25 07:38:10;;;;;;;9.60;6.20;;;;;;;35.98;53.77;100529.77;107812;1277;21992;-81
2023/08/25 07:40:37;;;;;;;11.50;6.90;;;;;;;36.19;53.91;100530.58;107862;1290;21997;-80
2023/08/25 07:43:03;;;;;;;12.00;7.00;;;;;;;36.40;53.88;100528.10;107856;1289;22008;-80
2023/08/25 07:45:29;;;;;;;8.50;6.80;;;;;;;36.61;53.35;100526.83;107837;1284;21994;-66
2023/08/25 07:47:55;;;;;;;9.10;6.90;;;;;;;36.83;53.14;100525.88;107871;1284;21998;-79
2023/08/25 07:50:21;;;;;;;11.50;6.10;;;;;;;37.07;52.50;100530.16;107743;1287;22024;-80
2023/08/25 07:52:47;;;;;;;8.50;6.00;;;;;;;37.25;52.00;100534.41;107811;1281;21992;-82
2023/08/25 07:55:13;;;;;;;7.20;5.70;;;;;;;37.46;51.85;100538.23;107739;1286;21994;-80
2023/08/25 07:57:38;;;;;;;8.90;5.60;;;;;;;37.74;50.85;100535.97;107742;1287;21983;-84
2023/08/25 08:00:07;;;;;;;9.30;5.80;;;;;;;37.94;50.44;100533.62;107714;1286;22705;-59
2023/08/25 08:02:33;;;;;;;7.10;5.30;;;;;;;38.11;49.53;100532.53;107764;1277;22759;-60
2023/08/25 08:04:58;;;;;;;8.40;5.00;;;;;;;38.29;48.83;100534.34;107699;1280;22274;-61
2023/08/25 08:07:24;;;;;;;6.80;5.20;;;;;;;38.45;47.95;100530.59;107745;1286;21999;-59
2023/08/25 08:09:50;;;;;;;7.00;4.90;;;;;;;38.56;46.97;100528.70;107704;1284;21993;-79
2023/08/25 08:12:16;;;;;;;9.00;4.80;;;;;;;38.69;47.82;100530.57;107823;1290;22001;-60
2023/08/25 08:14:42;;;;;;;6.80;4.90;;;;;;;38.90;47.54;100529.33;107721;1281;22471;-77
2023/08/25 08:17:08;;;;;;;6.00;4.50;;;;;;;39.14;47.21;100528.02;107785;1290;22152;-60
2023/08/25 08:19:34;;;;;;;8.10;4.40;;;;;;;39.34;45.76;100526.37;107724;1290;22002;-80
2023/08/25 08:21:59;;;;;;;8.80;4.40;;;;;;;39.41;43.71;100531.87;107728;1287;21990;-60
2023/08/25 08:24:26;;;;;;;9.40;4.50;;;;;;;39.48;44.88;100533.64;108107;1284;21991;-82
2023/08/25 08:26:51;;;;;;;7.00;4.50;;;;;;;39.55;40.36;100531.20;107673;1291;21991;-78
2023/08/25 08:29:17;;;;;;;7.30;4.70;;;;;;;39.21;38.05;100530.27;107576;1286;22029;-62
2023/08/25 08:31:44;;;;;;;6.50;4.40;;;;;;;38.90;40.88;100530.33;107648;1290;21985;-60
2023/08/25 08:34:11;;;;;;;5.00;4.10;;;;;;;38.96;42.48;100527.32;108008;1287;21985;-59
2023/08/25 08:36:37;;;;;;;7.10;4.30;;;;;;;39.21;41.68;100522.08;107885;1290;22034;-60
2023/08/25 08:39:04;;;;;;;6.80;4.10;;;;;;;39.43;41.80;100524.98;108462;1290;21999;-61
2023/08/25 08:41:30;;;;;;;5.90;3.80;;;;;;;39.65;41.66;100524.99;108187;1281;21996;-79
2023/08/25 08:43:58;;;;;;;7.60;3.90;;;;;;;39.85;39.94;100526.08;107764;1287;22003;-60
2023/08/25 08:46:23;;;;;;;8.10;3.90;;;;;;;39.78;37.79;100531.57;107812;1280;21989;-79
2023/08/25 08:48:49;;;;;;;6.80;3.50;;;;;;;39.53;37.58;100533.69;107730;1289;22000;-79
2023/08/25 08:51:17;;;;;;;8.10;4.00;;;;;;;39.35;38.04;100528.42;107754;1286;21992;-77
2023/08/25 08:53:43;;;;;;;6.30;4.00;;;;;;;39.17;38.01;100524.00;107834;1286;21995;-60
2023/08/25 08:56:09;;;;;;;5.90;3.60;;;;;;;39.25;38.88;100521.64;107763;1284;21999;-60
2023/08/25 08:58:34;;;;;;;7.50;3.50;;;;;;;39.40;38.46;100521.95;107845;1286;21999;-60
2023/08/25 09:01:00;;;;;;;6.10;3.30;;;;;;;39.35;37.70;100522.95;107867;1281;22030;-60
2023/08/25 09:03:29;;;;;;;6.60;3.40;;;;;;;39.10;36.01;100525.73;107822;1290;21997;-79
2023/08/25 09:05:57;;;;;;;5.90;3.50;;;;;;;38.87;37.33;100527.72;107894;1284;23138;-77
2023/08/25 09:08:23;;;;;;;6.10;3.40;;;;;;;38.73;36.76;100526.98;107871;1281;21994;-78
2023/08/25 09:10:49;;;;;;;4.90;3.50;;;;;;;38.75;37.96;100525.23;107809;1289;23205;-80
2023/08/25 09:13:14;;;;;;;6.20;3.30;;;;;;;38.92;38.48;100524.00;107811;1284;22027;-60
2023/08/25 09:15:40;;;;;;;5.30;3.40;;;;;;;39.17;39.15;100521.29;107779;1284;22062;-77
2023/08/25 09:18:07;;;;;;;5.30;3.30;;;;;;;39.43;38.53;100514.55;107760;1290;21988;-60
2023/08/25 09:20:35;;;;;;;5.30;3.20;;;;;;;39.63;37.05;100511.13;107780;1290;21992;-78
2023/08/25 09:23:01;;;;;;;4.90;3.40;;;;;;;39.83;37.97;100511.75;107977;1284;21990;-60
2023/08/25 09:25:27;;;;;;;5.70;3.40;;;;;;;40.07;36.92;100505.45;107757;1284;21998;-61
2023/08/25 09:27:57;;;;;;;4.90;3.20;;;;;;;40.31;36.99;100497.04;107758;1287;21998;-78
2023/08/25 09:30:52;;;;;;;4.40;3.30;;;;;;;40.50;36.15;100493.80;107785;1290;22003;-60
2023/08/25 09:33:18;;;;;;;6.60;3.50;;;;;;;40.61;35.70;100496.88;107620;1287;21995;-59
2023/08/25 09:35:43;;;;;;;8.00;3.50;;;;;;;40.67;36.35;100500.35;107756;1280;22072;-59
2023/08/25 09:38:27;;;;;;;7.00;3.60;;;;;;;40.72;34.27;100501.29;107795;1287;22052;-60
2023/08/25 09:40:53;;;;;;;6.10;3.50;;;;;;;40.56;35.86;100495.73;107811;1277;22162;-77
2023/08/25 09:43:18;;;;;;;9.50;3.30;;;;;;;40.68;35.80;100491.90;107731;1284;21993;-59
2023/08/25 09:45:44;;;;;;;5.80;3.50;;;;;;;40.99;35.55;100496.63;107814;1290;21984;-60
2023/08/25 09:48:11;;;;;;;6.40;3.10;;;;;;;41.16;35.28;100497.73;107770;1278;22027;-59
2023/08/25 09:50:41;;;;;;;5.80;3.30;;;;;;;41.28;36.18;100501.92;107814;1284;22040;-60
2023/08/25 09:53:07;;;;;;;5.50;3.20;;;;;;;41.64;36.91;100503.77;107800;1286;21997;-60
2023/08/25 09:55:34;;;;;;;5.70;3.10;;;;;;;42.01;36.34;100499.97;107759;1281;22100;-61
2023/08/25 09:58:00;;;;;;;5.70;3.20;;;;;;;42.28;35.46;100494.67;107801;1287;23059;-77
2023/08/25 10:00:25;;;;;;;5.30;3.20;;;;;;;42.33;35.35;100493.99;107782;1283;21995;-78
2023/08/25 10:02:51;;;;;;;5.90;3.50;;;;;;;42.46;35.70;100492.48;107817;1289;21993;-79
2023/08/25 10:05:17;;;;;;;8.30;3.40;;;;;;;42.64;34.70;100497.83;107786;1290;21990;-76
2023/08/25 10:07:43;;;;;;;5.90;3.50;;;;;;;42.60;34.35;100498.19;107813;1284;22028;-60
2023/08/25 10:10:09;;;;;;;6.50;3.70;;;;;;;42.60;34.13;100499.38;107773;1290;21990;-78
2023/08/25 10:12:37;;;;;;;5.80;3.20;;;;;;;42.74;34.85;100495.25;107847;1287;24479;-78
2023/08/25 10:15:05;;;;;;;5.40;3.30;;;;;;;42.98;34.21;100497.89;107737;1287;23647;-60
2023/08/25 10:17:31;;;;;;;5.90;3.60;;;;;;;42.93;32.59;100493.44;107828;1286;21993;-59
2023/08/25 10:19:57;;;;;;;5.70;3.20;;;;;;;42.81;34.32;100486.59;107787;1282;21986;-59
2023/08/25 10:22:23;;;;;;;5.30;3.80;;;;;;;42.99;34.24;100481.23;107809;1290;21999;-60
2023/08/25 10:24:49;;;;;;;6.50;4.20;;;;;;;43.03;32.60;100487.11;107783;1290;22001;-75
2023/08/25 10:27:14;;;;;;;6.00;3.70;;;;;;;42.68;32.18;100485.35;107849;1277;22028;-76
2023/08/25 10:29:40;;;;;;;10.20;3.60;;;;;;;42.12;31.72;100484.50;107920;1290;22027;-60
2023/08/25 10:32:06;;;;;;;8.20;4.10;;;;;;;41.60;32.58;100481.14;107788;1290;23154;-60
2023/08/25 10:34:41;;;;;;;6.70;3.90;;;;;;;41.42;32.89;100476.14;107864;1290;22007;-75
2023/08/25 10:37:12;;;;;;;5.40;3.60;;;;;;;41.45;33.04;100470.30;107814;1290;22024;-77
2023/08/25 10:39:44;;;;;;;5.10;3.40;;;;;;;41.61;33.40;100468.64;107799;1289;23731;-78
2023/08/25 10:42:10;;;;;;;4.50;3.30;;;;;;;41.80;33.01;100466.02;107788;1283;23831;-77
2023/08/25 10:44:40;;;;;;;5.30;3.40;;;;;;;41.80;32.78;100462.27;107761;1290;21999;-76
2023/08/25 10:47:05;;;;;;;6.40;3.90;;;;;;;41.81;33.21;100460.98;107795;1286;22024;-60
2023/08/25 10:49:37;;;;;;;6.60;3.70;;;;;;;41.97;32.93;100462.19;107758;1284;21989;-59
2023/08/25 10:52:14;;;;;;;6.50;3.30;;;;;;;42.11;33.11;100460.21;107787;1284;21989;-77
2023/08/25 10:54:41;;;;;;;7.80;3.80;;;;;;;42.33;33.21;100453.96;107819;1284;21987;-60
2023/08/25 10:57:19;;;;;;;4.80;3.20;;;;;;;42.60;33.37;100454.63;107809;1284;21980;-60
2023/08/25 10:59:54;;;;;;;8.30;3.80;;;;;;;42.91;32.42;100453.40;107824;1279;22004;-60
2023/08/25 11:02:36;;;;;;;6.40;3.70;;;;;;;43.07;32.10;100453.74;107803;1286;22018;-61
2023/08/25 11:05:33;;;;;;;6.10;4.30;;;;;;;43.15;32.90;100454.84;107815;1286;22012;-76
2023/08/25 11:08:03;;;;;;;6.60;4.20;;;;;;;43.32;31.52;100453.08;107820;1290;23312;-76
2023/08/25 11:10:33;;;;;;;10.10;4.00;;;;;;;43.18;30.42;100450.96;107913;1290;21990;-77